Airport View

Enter AWOS ICAO identifier for current METAR.

ex. KFNL

PAEN 080553Z AUTO 20008KT 10SM BKN075 BKN085 14/09 A2963

8 Aug 2020 06:21

Frequency: 133.35

Phone: 907-283-6513

Other Area AWOS: PASX - PANC - PALH - PAMR

TAF PAEN 080537Z 0806/0906 20007KT P6SM VCSH SKC FM081000 VRB03KT P6SM VCFG SCT005 BKN045 FM081800 24005KT P6SM BKN050